sensor_id;sensor_type;location;lat;lon;timestamp;P1;durP1;ratioP1;P2;durP2;ratioP2
75189;SDS011;69198;44.694;37.790;2023-05-24T00:00:43;23.60;;;9.93;;
75189;SDS011;69198;44.694;37.790;2023-05-24T00:01:46;24.17;;;11.03;;
75189;SDS011;69198;44.694;37.790;2023-05-24T00:02:48;25.23;;;10.32;;
75189;SDS011;69198;44.694;37.790;2023-05-24T00:03:49;26.33;;;10.85;;
75189;SDS011;69198;44.694;37.790;2023-05-24T00:04:50;22.98;;;9.60;;
75189;SDS011;69198;44.694;37.790;2023-05-24T00:05:52;24.25;;;10.80;;
75189;SDS011;69198;44.694;37.790;2023-05-24T00:06:53;23.95;;;10.73;;
75189;SDS011;69198;44.694;37.790;2023-05-24T00:07:55;27.52;;;11.02;;
75189;SDS011;69198;44.694;37.790;2023-05-24T00:08:56;25.10;;;10.98;;
75189;SDS011;69198;44.694;37.790;2023-05-24T00:09:57;27.38;;;10.68;;
75189;SDS011;69198;44.694;37.790;2023-05-24T00:10:59;27.13;;;10.50;;
75189;SDS011;69198;44.694;37.790;2023-05-24T00:12:00;29.47;;;12.13;;
75189;SDS011;69198;44.694;37.790;2023-05-24T00:13:05;29.02;;;11.82;;
75189;SDS011;69198;44.694;37.790;2023-05-24T00:14:07;26.48;;;11.35;;
75189;SDS011;69198;44.694;37.790;2023-05-24T00:15:08;26.33;;;11.85;;
75189;SDS011;69198;44.694;37.790;2023-05-24T00:16:09;23.73;;;11.10;;
75189;SDS011;69198;44.694;37.790;2023-05-24T00:17:11;26.90;;;11.35;;
75189;SDS011;69198;44.694;37.790;2023-05-24T00:18:12;27.27;;;11.45;;
75189;SDS011;69198;44.694;37.790;2023-05-24T00:19:13;26.15;;;11.52;;
75189;SDS011;69198;44.694;37.790;2023-05-24T00:20:17;26.98;;;11.50;;
75189;SDS011;69198;44.694;37.790;2023-05-24T00:21:19;28.52;;;11.52;;
75189;SDS011;69198;44.694;37.790;2023-05-24T00:22:21;26.60;;;10.43;;
75189;SDS011;69198;44.694;37.790;2023-05-24T00:23:22;26.58;;;11.75;;
75189;SDS011;69198;44.694;37.790;2023-05-24T00:24:23;28.90;;;11.27;;
75189;SDS011;69198;44.694;37.790;2023-05-24T00:25:24;24.70;;;10.85;;
75189;SDS011;69198;44.694;37.790;2023-05-24T00:26:25;24.20;;;10.43;;
75189;SDS011;69198;44.694;37.790;2023-05-24T00:27:30;24.75;;;9.90;;
75189;SDS011;69198;44.694;37.790;2023-05-24T00:28:32;24.05;;;10.27;;
75189;SDS011;69198;44.694;37.790;2023-05-24T00:29:34;25.70;;;10.18;;
75189;SDS011;69198;44.694;37.790;2023-05-24T00:30:36;25.58;;;10.05;;
75189;SDS011;69198;44.694;37.790;2023-05-24T00:31:37;21.43;;;9.83;;
75189;SDS011;69198;44.694;37.790;2023-05-24T00:32:38;29.10;;;11.43;;
75189;SDS011;69198;44.694;37.790;2023-05-24T00:33:39;28.13;;;11.65;;
75189;SDS011;69198;44.694;37.790;2023-05-24T00:34:40;27.20;;;11.32;;
75189;SDS011;69198;44.694;37.790;2023-05-24T00:35:41;27.70;;;10.73;;
75189;SDS011;69198;44.694;37.790;2023-05-24T00:36:42;27.67;;;11.70;;
75189;SDS011;69198;44.694;37.790;2023-05-24T00:37:43;26.73;;;10.05;;
75189;SDS011;69198;44.694;37.790;2023-05-24T00:38:44;24.65;;;10.85;;
75189;SDS011;69198;44.694;37.790;2023-05-24T00:39:45;28.83;;;11.52;;
75189;SDS011;69198;44.694;37.790;2023-05-24T00:40:46;28.27;;;10.87;;
75189;SDS011;69198;44.694;37.790;2023-05-24T00:41:48;31.17;;;11.75;;
75189;SDS011;69198;44.694;37.790;2023-05-24T00:42:49;29.45;;;11.70;;
75189;SDS011;69198;44.694;37.790;2023-05-24T00:43:50;31.70;;;12.38;;
75189;SDS011;69198;44.694;37.790;2023-05-24T00:44:51;27.17;;;10.68;;
75189;SDS011;69198;44.694;37.790;2023-05-24T00:46:00;29.88;;;12.00;;
75189;SDS011;69198;44.694;37.790;2023-05-24T00:47:16;29.35;;;11.98;;
75189;SDS011;69198;44.694;37.790;2023-05-24T00:48:19;31.95;;;11.57;;
75189;SDS011;69198;44.694;37.790;2023-05-24T00:49:23;30.48;;;11.57;;
75189;SDS011;69198;44.694;37.790;2023-05-24T00:50:24;28.00;;;10.90;;
75189;SDS011;69198;44.694;37.790;2023-05-24T00:51:28;28.93;;;11.07;;
75189;SDS011;69198;44.694;37.790;2023-05-24T00:52:32;24.85;;;9.85;;
75189;SDS011;69198;44.694;37.790;2023-05-24T00:53:37;31.20;;;12.43;;
75189;SDS011;69198;44.694;37.790;2023-05-24T00:54:39;27.75;;;10.43;;
75189;SDS011;69198;44.694;37.790;2023-05-24T00:55:41;27.73;;;10.82;;
75189;SDS011;69198;44.694;37.790;2023-05-24T00:56:42;30.80;;;10.95;;
75189;SDS011;69198;44.694;37.790;2023-05-24T00:57:43;28.92;;;11.60;;
75189;SDS011;69198;44.694;37.790;2023-05-24T00:58:44;31.85;;;11.30;;
75189;SDS011;69198;44.694;37.790;2023-05-24T00:59:46;32.22;;;12.95;;
75189;SDS011;69198;44.694;37.790;2023-05-24T01:00:48;29.77;;;11.07;;
75189;SDS011;69198;44.694;37.790;2023-05-24T01:01:51;30.67;;;11.77;;
75189;SDS011;69198;44.694;37.790;2023-05-24T01:02:54;31.45;;;11.82;;
75189;SDS011;69198;44.694;37.790;2023-05-24T01:03:56;30.98;;;10.30;;
75189;SDS011;69198;44.694;37.790;2023-05-24T01:04:58;28.65;;;11.18;;
75189;SDS011;69198;44.694;37.790;2023-05-24T01:06:01;30.40;;;11.00;;
75189;SDS011;69198;44.694;37.790;2023-05-24T01:07:10;28.00;;;10.95;;
75189;SDS011;69198;44.694;37.790;2023-05-24T01:13:43;27.60;;;10.37;;
75189;SDS011;69198;44.694;37.790;2023-05-24T01:16:37;25.13;;;10.45;;
75189;SDS011;69198;44.694;37.790;2023-05-24T01:19:37;27.38;;;9.30;;
75189;SDS011;69198;44.694;37.790;2023-05-24T01:20:42;24.67;;;9.82;;
75189;SDS011;69198;44.694;37.790;2023-05-24T01:21:58;23.67;;;9.70;;
75189;SDS011;69198;44.694;37.790;2023-05-24T01:27:24;27.40;;;9.40;;
75189;SDS011;69198;44.694;37.790;2023-05-24T01:28:27;26.50;;;9.93;;
75189;SDS011;69198;44.694;37.790;2023-05-24T01:29:29;24.30;;;10.05;;
75189;SDS011;69198;44.694;37.790;2023-05-24T01:30:32;23.65;;;9.45;;
75189;SDS011;69198;44.694;37.790;2023-05-24T01:31:33;23.38;;;8.75;;
75189;SDS011;69198;44.694;37.790;2023-05-24T01:32:36;26.58;;;9.85;;
75189;SDS011;69198;44.694;37.790;2023-05-24T01:33:40;27.30;;;10.10;;
75189;SDS011;69198;44.694;37.790;2023-05-24T01:34:42;22.70;;;9.00;;
75189;SDS011;69198;44.694;37.790;2023-05-24T01:35:43;24.23;;;9.52;;
75189;SDS011;69198;44.694;37.790;2023-05-24T01:36:46;25.13;;;10.03;;
75189;SDS011;69198;44.694;37.790;2023-05-24T01:37:47;26.77;;;10.73;;
75189;SDS011;69198;44.694;37.790;2023-05-24T01:38:48;24.98;;;10.20;;
75189;SDS011;69198;44.694;37.790;2023-05-24T01:39:50;26.45;;;10.80;;
75189;SDS011;69198;44.694;37.790;2023-05-24T01:41:03;24.63;;;10.32;;
75189;SDS011;69198;44.694;37.790;2023-05-24T01:42:17;24.23;;;9.90;;
75189;SDS011;69198;44.694;37.790;2023-05-24T01:43:42;25.48;;;10.68;;
75189;SDS011;69198;44.694;37.790;2023-05-24T01:46:46;24.75;;;9.50;;
75189;SDS011;69198;44.694;37.790;2023-05-24T01:48:01;26.10;;;9.53;;
75189;SDS011;69198;44.694;37.790;2023-05-24T01:49:21;21.83;;;8.75;;
75189;SDS011;69198;44.694;37.790;2023-05-24T01:50:27;19.27;;;8.00;;
75189;SDS011;69198;44.694;37.790;2023-05-24T01:52:55;21.67;;;8.27;;
75189;SDS011;69198;44.694;37.790;2023-05-24T01:54:01;19.75;;;8.48;;
75189;SDS011;69198;44.694;37.790;2023-05-24T01:55:07;19.73;;;8.80;;
75189;SDS011;69198;44.694;37.790;2023-05-24T01:56:09;16.50;;;7.65;;
75189;SDS011;69198;44.694;37.790;2023-05-24T01:57:12;15.20;;;7.22;;
75189;SDS011;69198;44.694;37.790;2023-05-24T01:58:14;17.00;;;6.75;;
75189;SDS011;69198;44.694;37.790;2023-05-24T01:59:16;19.30;;;7.17;;
75189;SDS011;69198;44.694;37.790;2023-05-24T02:00:19;17.70;;;7.45;;
75189;SDS011;69198;44.694;37.790;2023-05-24T02:01:23;15.40;;;7.32;;
75189;SDS011;69198;44.694;37.790;2023-05-24T02:02:27;14.80;;;6.97;;
75189;SDS011;69198;44.694;37.790;2023-05-24T02:03:28;17.50;;;7.20;;
75189;SDS011;69198;44.694;37.790;2023-05-24T02:04:30;17.50;;;8.05;;
75189;SDS011;69198;44.694;37.790;2023-05-24T02:05:34;15.60;;;6.97;;
75189;SDS011;69198;44.694;37.790;2023-05-24T02:06:39;16.20;;;7.40;;
75189;SDS011;69198;44.694;37.790;2023-05-24T02:07:41;19.23;;;7.35;;
75189;SDS011;69198;44.694;37.790;2023-05-24T02:08:42;16.30;;;7.80;;
75189;SDS011;69198;44.694;37.790;2023-05-24T02:09:44;20.17;;;7.85;;
75189;SDS011;69198;44.694;37.790;2023-05-24T02:10:46;16.33;;;6.72;;
75189;SDS011;69198;44.694;37.790;2023-05-24T02:11:47;17.48;;;7.07;;
75189;SDS011;69198;44.694;37.790;2023-05-24T02:12:49;15.82;;;7.70;;
75189;SDS011;69198;44.694;37.790;2023-05-24T02:13:50;18.67;;;8.20;;
75189;SDS011;69198;44.694;37.790;2023-05-24T02:14:51;19.00;;;8.00;;
75189;SDS011;69198;44.694;37.790;2023-05-24T02:15:54;19.45;;;7.97;;
75189;SDS011;69198;44.694;37.790;2023-05-24T02:16:55;17.98;;;7.95;;
75189;SDS011;69198;44.694;37.790;2023-05-24T02:17:58;21.37;;;8.30;;
75189;SDS011;69198;44.694;37.790;2023-05-24T02:19:01;19.65;;;7.40;;
75189;SDS011;69198;44.694;37.790;2023-05-24T02:20:02;18.17;;;7.97;;
75189;SDS011;69198;44.694;37.790;2023-05-24T02:21:06;15.57;;;7.68;;
75189;SDS011;69198;44.694;37.790;2023-05-24T02:22:07;19.33;;;7.85;;
75189;SDS011;69198;44.694;37.790;2023-05-24T02:23:10;17.02;;;6.90;;
75189;SDS011;69198;44.694;37.790;2023-05-24T02:24:11;17.00;;;8.05;;
75189;SDS011;69198;44.694;37.790;2023-05-24T02:25:15;18.25;;;7.70;;
75189;SDS011;69198;44.694;37.790;2023-05-24T02:26:16;19.48;;;7.55;;
75189;SDS011;69198;44.694;37.790;2023-05-24T02:27:18;19.27;;;7.05;;
75189;SDS011;69198;44.694;37.790;2023-05-24T02:28:19;18.53;;;8.07;;
75189;SDS011;69198;44.694;37.790;2023-05-24T02:29:21;17.35;;;7.55;;
75189;SDS011;69198;44.694;37.790;2023-05-24T02:30:22;17.58;;;8.05;;
75189;SDS011;69198;44.694;37.790;2023-05-24T02:31:23;16.58;;;7.80;;
75189;SDS011;69198;44.694;37.790;2023-05-24T02:32:28;18.02;;;8.23;;
75189;SDS011;69198;44.694;37.790;2023-05-24T02:33:29;18.83;;;8.32;;
75189;SDS011;69198;44.694;37.790;2023-05-24T02:34:30;20.10;;;9.55;;
75189;SDS011;69198;44.694;37.790;2023-05-24T02:35:31;20.05;;;8.05;;
75189;SDS011;69198;44.694;37.790;2023-05-24T02:36:33;21.58;;;9.23;;
75189;SDS011;69198;44.694;37.790;2023-05-24T02:37:35;18.98;;;8.73;;
75189;SDS011;69198;44.694;37.790;2023-05-24T02:38:36;19.40;;;9.13;;
75189;SDS011;69198;44.694;37.790;2023-05-24T02:39:37;20.15;;;9.18;;
75189;SDS011;69198;44.694;37.790;2023-05-24T02:40:38;19.95;;;9.48;;
75189;SDS011;69198;44.694;37.790;2023-05-24T02:41:39;23.55;;;10.07;;
75189;SDS011;69198;44.694;37.790;2023-05-24T02:42:42;21.88;;;9.65;;
75189;SDS011;69198;44.694;37.790;2023-05-24T02:43:46;22.27;;;9.90;;
75189;SDS011;69198;44.694;37.790;2023-05-24T02:44:47;22.55;;;9.75;;
75189;SDS011;69198;44.694;37.790;2023-05-24T02:45:51;19.45;;;8.80;;
75189;SDS011;69198;44.694;37.790;2023-05-24T02:46:52;24.08;;;10.05;;
75189;SDS011;69198;44.694;37.790;2023-05-24T02:47:53;21.67;;;9.90;;
75189;SDS011;69198;44.694;37.790;2023-05-24T02:48:54;22.73;;;9.35;;
75189;SDS011;69198;44.694;37.790;2023-05-24T02:49:56;22.17;;;10.25;;
75189;SDS011;69198;44.694;37.790;2023-05-24T02:50:57;22.42;;;9.93;;
75189;SDS011;69198;44.694;37.790;2023-05-24T02:52:02;24.75;;;10.02;;
75189;SDS011;69198;44.694;37.790;2023-05-24T02:53:03;23.73;;;9.82;;
75189;SDS011;69198;44.694;37.790;2023-05-24T02:54:04;23.00;;;10.13;;
75189;SDS011;69198;44.694;37.790;2023-05-24T02:55:06;25.80;;;10.70;;
75189;SDS011;69198;44.694;37.790;2023-05-24T02:56:08;24.98;;;9.85;;
75189;SDS011;69198;44.694;37.790;2023-05-24T02:57:11;24.77;;;9.85;;
75189;SDS011;69198;44.694;37.790;2023-05-24T02:58:15;21.50;;;9.70;;
75189;SDS011;69198;44.694;37.790;2023-05-24T02:59:20;20.10;;;8.63;;
75189;SDS011;69198;44.694;37.790;2023-05-24T03:00:22;22.23;;;9.20;;
75189;SDS011;69198;44.694;37.790;2023-05-24T03:01:23;20.85;;;8.38;;
75189;SDS011;69198;44.694;37.790;2023-05-24T03:02:26;23.75;;;9.00;;
75189;SDS011;69198;44.694;37.790;2023-05-24T03:03:34;21.42;;;8.80;;
75189;SDS011;69198;44.694;37.790;2023-05-24T03:04:36;20.40;;;8.80;;
75189;SDS011;69198;44.694;37.790;2023-05-24T03:05:37;19.20;;;8.30;;
75189;SDS011;69198;44.694;37.790;2023-05-24T03:06:38;20.38;;;8.45;;
75189;SDS011;69198;44.694;37.790;2023-05-24T03:07:40;21.50;;;8.88;;
75189;SDS011;69198;44.694;37.790;2023-05-24T03:08:41;20.73;;;8.63;;
75189;SDS011;69198;44.694;37.790;2023-05-24T03:09:43;20.80;;;9.25;;
75189;SDS011;69198;44.694;37.790;2023-05-24T03:10:44;19.25;;;8.60;;
75189;SDS011;69198;44.694;37.790;2023-05-24T03:11:46;23.38;;;9.43;;
75189;SDS011;69198;44.694;37.790;2023-05-24T03:12:47;18.60;;;8.40;;
75189;SDS011;69198;44.694;37.790;2023-05-24T03:13:48;21.70;;;9.15;;
75189;SDS011;69198;44.694;37.790;2023-05-24T03:14:50;19.77;;;9.13;;
75189;SDS011;69198;44.694;37.790;2023-05-24T03:15:51;19.33;;;8.65;;
75189;SDS011;69198;44.694;37.790;2023-05-24T03:16:52;22.95;;;9.35;;
75189;SDS011;69198;44.694;37.790;2023-05-24T03:17:53;20.37;;;9.53;;
75189;SDS011;69198;44.694;37.790;2023-05-24T03:18:55;22.45;;;9.35;;
75189;SDS011;69198;44.694;37.790;2023-05-24T03:19:56;21.80;;;8.63;;
75189;SDS011;69198;44.694;37.790;2023-05-24T03:20:57;21.35;;;8.73;;
75189;SDS011;69198;44.694;37.790;2023-05-24T03:21:58;21.88;;;8.35;;
75189;SDS011;69198;44.694;37.790;2023-05-24T03:23:00;22.00;;;8.38;;
75189;SDS011;69198;44.694;37.790;2023-05-24T03:24:01;18.70;;;8.50;;
75189;SDS011;69198;44.694;37.790;2023-05-24T03:25:02;23.70;;;9.20;;
75189;SDS011;69198;44.694;37.790;2023-05-24T03:26:03;18.23;;;7.80;;
75189;SDS011;69198;44.694;37.790;2023-05-24T03:27:05;18.58;;;7.60;;
75189;SDS011;69198;44.694;37.790;2023-05-24T03:28:06;20.93;;;8.50;;
75189;SDS011;69198;44.694;37.790;2023-05-24T03:29:07;19.70;;;8.00;;
75189;SDS011;69198;44.694;37.790;2023-05-24T03:30:12;19.20;;;8.35;;
75189;SDS011;69198;44.694;37.790;2023-05-24T03:31:27;20.52;;;8.15;;
75189;SDS011;69198;44.694;37.790;2023-05-24T03:32:28;17.10;;;7.55;;
75189;SDS011;69198;44.694;37.790;2023-05-24T03:33:38;21.23;;;8.05;;
75189;SDS011;69198;44.694;37.790;2023-05-24T03:34:39;20.48;;;8.13;;
75189;SDS011;69198;44.694;37.790;2023-05-24T03:35:42;19.35;;;8.27;;
75189;SDS011;69198;44.694;37.790;2023-05-24T03:36:44;19.30;;;8.07;;
75189;SDS011;69198;44.694;37.790;2023-05-24T03:37:45;18.73;;;7.97;;
75189;SDS011;69198;44.694;37.790;2023-05-24T03:38:46;21.13;;;8.53;;
75189;SDS011;69198;44.694;37.790;2023-05-24T03:39:47;19.50;;;8.55;;
75189;SDS011;69198;44.694;37.790;2023-05-24T03:41:11;23.05;;;8.98;;
75189;SDS011;69198;44.694;37.790;2023-05-24T03:42:12;20.98;;;8.73;;
75189;SDS011;69198;44.694;37.790;2023-05-24T03:43:13;22.58;;;8.63;;
75189;SDS011;69198;44.694;37.790;2023-05-24T03:44:29;23.77;;;9.30;;
75189;SDS011;69198;44.694;37.790;2023-05-24T03:45:30;23.02;;;8.80;;
75189;SDS011;69198;44.694;37.790;2023-05-24T03:46:31;23.17;;;9.18;;
75189;SDS011;69198;44.694;37.790;2023-05-24T03:47:34;20.63;;;8.57;;
75189;SDS011;69198;44.694;37.790;2023-05-24T03:48:36;21.52;;;9.40;;
75189;SDS011;69198;44.694;37.790;2023-05-24T03:49:38;19.90;;;8.77;;
75189;SDS011;69198;44.694;37.790;2023-05-24T03:50:39;22.80;;;9.02;;
75189;SDS011;69198;44.694;37.790;2023-05-24T03:51:40;21.95;;;8.63;;
75189;SDS011;69198;44.694;37.790;2023-05-24T03:52:41;21.95;;;9.40;;
75189;SDS011;69198;44.694;37.790;2023-05-24T03:53:42;22.05;;;9.50;;
75189;SDS011;69198;44.694;37.790;2023-05-24T03:54:43;18.30;;;8.63;;
75189;SDS011;69198;44.694;37.790;2023-05-24T03:55:45;23.67;;;9.13;;
75189;SDS011;69198;44.694;37.790;2023-05-24T03:56:46;23.17;;;9.80;;
75189;SDS011;69198;44.694;37.790;2023-05-24T03:57:47;26.40;;;9.93;;
75189;SDS011;69198;44.694;37.790;2023-05-24T03:58:48;22.23;;;9.23;;
75189;SDS011;69198;44.694;37.790;2023-05-24T03:59:51;21.02;;;8.65;;
75189;SDS011;69198;44.694;37.790;2023-05-24T04:00:52;23.77;;;9.38;;
75189;SDS011;69198;44.694;37.790;2023-05-24T04:01:53;19.98;;;8.82;;
75189;SDS011;69198;44.694;37.790;2023-05-24T04:02:55;20.27;;;8.52;;
75189;SDS011;69198;44.694;37.790;2023-05-24T04:03:57;19.55;;;8.00;;
75189;SDS011;69198;44.694;37.790;2023-05-24T04:04:58;22.15;;;8.70;;
75189;SDS011;69198;44.694;37.790;2023-05-24T04:05:59;18.73;;;8.35;;
75189;SDS011;69198;44.694;37.790;2023-05-24T04:07:00;21.23;;;8.90;;
75189;SDS011;69198;44.694;37.790;2023-05-24T04:08:01;20.20;;;8.15;;
75189;SDS011;69198;44.694;37.790;2023-05-24T04:09:03;25.43;;;8.97;;
75189;SDS011;69198;44.694;37.790;2023-05-24T04:10:05;21.27;;;8.65;;
75189;SDS011;69198;44.694;37.790;2023-05-24T04:11:10;19.52;;;8.35;;
75189;SDS011;69198;44.694;37.790;2023-05-24T04:12:11;22.10;;;9.45;;
75189;SDS011;69198;44.694;37.790;2023-05-24T04:13:15;21.98;;;8.88;;
75189;SDS011;69198;44.694;37.790;2023-05-24T04:14:16;19.25;;;7.80;;
75189;SDS011;69198;44.694;37.790;2023-05-24T04:15:18;20.83;;;8.55;;
75189;SDS011;69198;44.694;37.790;2023-05-24T04:16:19;18.35;;;8.20;;
75189;SDS011;69198;44.694;37.790;2023-05-24T04:17:20;21.10;;;8.52;;
75189;SDS011;69198;44.694;37.790;2023-05-24T04:18:24;20.42;;;8.38;;
75189;SDS011;69198;44.694;37.790;2023-05-24T04:19:25;22.00;;;8.50;;
75189;SDS011;69198;44.694;37.790;2023-05-24T04:20:26;18.80;;;8.18;;
75189;SDS011;69198;44.694;37.790;2023-05-24T04:21:28;17.35;;;8.13;;
75189;SDS011;69198;44.694;37.790;2023-05-24T04:22:30;17.20;;;7.72;;
75189;SDS011;69198;44.694;37.790;2023-05-24T04:23:31;17.25;;;7.85;;
75189;SDS011;69198;44.694;37.790;2023-05-24T04:24:32;17.77;;;8.07;;
75189;SDS011;69198;44.694;37.790;2023-05-24T04:25:34;19.88;;;8.07;;
75189;SDS011;69198;44.694;37.790;2023-05-24T04:26:35;17.55;;;7.60;;
75189;SDS011;69198;44.694;37.790;2023-05-24T04:27:37;18.08;;;7.30;;
75189;SDS011;69198;44.694;37.790;2023-05-24T04:28:38;16.58;;;7.53;;
75189;SDS011;69198;44.694;37.790;2023-05-24T04:29:40;16.17;;;7.13;;
75189;SDS011;69198;44.694;37.790;2023-05-24T04:30:43;18.48;;;7.80;;
75189;SDS011;69198;44.694;37.790;2023-05-24T04:31:45;16.08;;;7.95;;
75189;SDS011;69198;44.694;37.790;2023-05-24T04:32:48;17.52;;;7.00;;
75189;SDS011;69198;44.694;37.790;2023-05-24T04:33:49;18.95;;;7.72;;
75189;SDS011;69198;44.694;37.790;2023-05-24T04:34:50;17.65;;;7.13;;
75189;SDS011;69198;44.694;37.790;2023-05-24T04:35:52;17.40;;;7.07;;
75189;SDS011;69198;44.694;37.790;2023-05-24T04:36:53;17.00;;;7.25;;
75189;SDS011;69198;44.694;37.790;2023-05-24T04:37:54;16.55;;;7.35;;
75189;SDS011;69198;44.694;37.790;2023-05-24T04:38:57;19.38;;;7.40;;
75189;SDS011;69198;44.694;37.790;2023-05-24T04:40:02;18.27;;;7.30;;
75189;SDS011;69198;44.694;37.790;2023-05-24T04:41:04;18.40;;;6.85;;
75189;SDS011;69198;44.694;37.790;2023-05-24T04:42:06;16.83;;;6.78;;
75189;SDS011;69198;44.694;37.790;2023-05-24T04:43:07;17.77;;;6.95;;
75189;SDS011;69198;44.694;37.790;2023-05-24T04:44:10;18.00;;;7.10;;
75189;SDS011;69198;44.694;37.790;2023-05-24T04:45:11;18.42;;;7.03;;
75189;SDS011;69198;44.694;37.790;2023-05-24T04:46:12;16.17;;;7.28;;
75189;SDS011;69198;44.694;37.790;2023-05-24T04:47:13;16.10;;;6.85;;
75189;SDS011;69198;44.694;37.790;2023-05-24T04:48:15;17.92;;;7.53;;
75189;SDS011;69198;44.694;37.790;2023-05-24T04:49:16;17.63;;;6.75;;
75189;SDS011;69198;44.694;37.790;2023-05-24T04:50:18;15.90;;;6.83;;
75189;SDS011;69198;44.694;37.790;2023-05-24T04:51:21;15.77;;;7.10;;
75189;SDS011;69198;44.694;37.790;2023-05-24T04:52:23;17.17;;;7.57;;
75189;SDS011;69198;44.694;37.790;2023-05-24T04:53:25;15.60;;;6.65;;
75189;SDS011;69198;44.694;37.790;2023-05-24T04:54:26;17.52;;;6.82;;
75189;SDS011;69198;44.694;37.790;2023-05-24T04:55:27;15.52;;;6.72;;
75189;SDS011;69198;44.694;37.790;2023-05-24T04:56:28;16.45;;;6.97;;
75189;SDS011;69198;44.694;37.790;2023-05-24T04:57:29;15.98;;;6.68;;
75189;SDS011;69198;44.694;37.790;2023-05-24T04:58:30;16.02;;;6.90;;
75189;SDS011;69198;44.694;37.790;2023-05-24T04:59:32;16.20;;;7.40;;
75189;SDS011;69198;44.694;37.790;2023-05-24T05:00:33;17.35;;;7.00;;
75189;SDS011;69198;44.694;37.790;2023-05-24T05:01:34;16.48;;;6.60;;
75189;SDS011;69198;44.694;37.790;2023-05-24T05:02:35;20.60;;;7.93;;
75189;SDS011;69198;44.694;37.790;2023-05-24T05:03:37;14.85;;;6.75;;
75189;SDS011;69198;44.694;37.790;2023-05-24T05:04:38;18.40;;;7.18;;
75189;SDS011;69198;44.694;37.790;2023-05-24T05:05:39;17.98;;;8.10;;
75189;SDS011;69198;44.694;37.790;2023-05-24T05:06:41;18.42;;;7.22;;
75189;SDS011;69198;44.694;37.790;2023-05-24T05:07:43;20.77;;;7.45;;
75189;SDS011;69198;44.694;37.790;2023-05-24T05:08:45;17.10;;;7.90;;
75189;SDS011;69198;44.694;37.790;2023-05-24T05:09:47;22.77;;;7.50;;
75189;SDS011;69198;44.694;37.790;2023-05-24T05:10:48;16.27;;;6.85;;
75189;SDS011;69198;44.694;37.790;2023-05-24T05:11:49;16.08;;;7.18;;
75189;SDS011;69198;44.694;37.790;2023-05-24T05:12:50;13.70;;;5.63;;
75189;SDS011;69198;44.694;37.790;2023-05-24T05:13:51;17.02;;;7.00;;
75189;SDS011;69198;44.694;37.790;2023-05-24T05:14:53;19.05;;;7.93;;
75189;SDS011;69198;44.694;37.790;2023-05-24T05:15:54;18.10;;;6.88;;
75189;SDS011;69198;44.694;37.790;2023-05-24T05:16:55;14.88;;;6.60;;
75189;SDS011;69198;44.694;37.790;2023-05-24T05:17:56;18.10;;;7.00;;
75189;SDS011;69198;44.694;37.790;2023-05-24T05:18:57;15.90;;;8.00;;
75189;SDS011;69198;44.694;37.790;2023-05-24T05:19:58;16.60;;;7.32;;
75189;SDS011;69198;44.694;37.790;2023-05-24T05:21:00;15.35;;;6.90;;
75189;SDS011;69198;44.694;37.790;2023-05-24T05:22:02;13.95;;;6.32;;
75189;SDS011;69198;44.694;37.790;2023-05-24T05:23:04;17.98;;;6.97;;
75189;SDS011;69198;44.694;37.790;2023-05-24T05:24:05;18.73;;;7.80;;
75189;SDS011;69198;44.694;37.790;2023-05-24T05:25:07;16.02;;;7.15;;
75189;SDS011;69198;44.694;37.790;2023-05-24T05:26:09;15.75;;;6.65;;
75189;SDS011;69198;44.694;37.790;2023-05-24T05:27:11;15.45;;;6.80;;
75189;SDS011;69198;44.694;37.790;2023-05-24T05:28:12;17.07;;;7.10;;
75189;SDS011;69198;44.694;37.790;2023-05-24T05:29:14;18.17;;;7.68;;
75189;SDS011;69198;44.694;37.790;2023-05-24T05:30:19;19.33;;;6.78;;
75189;SDS011;69198;44.694;37.790;2023-05-24T05:31:20;14.98;;;6.97;;
75189;SDS011;69198;44.694;37.790;2023-05-24T05:32:21;16.05;;;6.65;;
75189;SDS011;69198;44.694;37.790;2023-05-24T05:33:23;15.90;;;6.55;;
75189;SDS011;69198;44.694;37.790;2023-05-24T05:34:24;17.45;;;6.78;;
75189;SDS011;69198;44.694;37.790;2023-05-24T05:35:25;16.75;;;7.05;;
75189;SDS011;69198;44.694;37.790;2023-05-24T05:36:26;15.73;;;6.57;;
75189;SDS011;69198;44.694;37.790;2023-05-24T05:37:27;15.00;;;6.72;;
75189;SDS011;69198;44.694;37.790;2023-05-24T05:38:29;15.50;;;7.40;;
75189;SDS011;69198;44.694;37.790;2023-05-24T05:39:30;15.88;;;6.70;;
75189;SDS011;69198;44.694;37.790;2023-05-24T05:40:31;16.30;;;6.72;;
75189;SDS011;69198;44.694;37.790;2023-05-24T05:41:32;16.20;;;6.55;;
75189;SDS011;69198;44.694;37.790;2023-05-24T05:42:33;15.88;;;6.88;;
75189;SDS011;69198;44.694;37.790;2023-05-24T05:43:34;15.55;;;6.45;;
75189;SDS011;69198;44.694;37.790;2023-05-24T05:44:35;13.98;;;5.80;;
75189;SDS011;69198;44.694;37.790;2023-05-24T05:45:36;15.93;;;6.73;;
75189;SDS011;69198;44.694;37.790;2023-05-24T05:46:38;16.55;;;6.15;;
75189;SDS011;69198;44.694;37.790;2023-05-24T05:47:39;16.05;;;6.30;;
75189;SDS011;69198;44.694;37.790;2023-05-24T05:48:40;14.43;;;5.38;;
75189;SDS011;69198;44.694;37.790;2023-05-24T05:49:41;13.52;;;6.13;;
75189;SDS011;69198;44.694;37.790;2023-05-24T05:50:42;13.02;;;5.63;;
75189;SDS011;69198;44.694;37.790;2023-05-24T05:51:44;13.98;;;6.20;;
75189;SDS011;69198;44.694;37.790;2023-05-24T05:52:46;14.93;;;6.10;;
75189;SDS011;69198;44.694;37.790;2023-05-24T05:53:47;13.10;;;5.67;;
75189;SDS011;69198;44.694;37.790;2023-05-24T05:54:48;14.57;;;6.23;;
75189;SDS011;69198;44.694;37.790;2023-05-24T05:55:49;13.38;;;5.50;;
75189;SDS011;69198;44.694;37.790;2023-05-24T05:56:50;13.77;;;5.93;;
75189;SDS011;69198;44.694;37.790;2023-05-24T05:57:51;16.05;;;6.07;;
75189;SDS011;69198;44.694;37.790;2023-05-24T05:58:52;13.55;;;5.70;;
75189;SDS011;69198;44.694;37.790;2023-05-24T05:59:53;12.70;;;5.20;;
75189;SDS011;69198;44.694;37.790;2023-05-24T06:00:55;14.10;;;5.97;;
75189;SDS011;69198;44.694;37.790;2023-05-24T06:01:56;15.13;;;6.57;;
75189;SDS011;69198;44.694;37.790;2023-05-24T06:02:57;13.82;;;5.82;;
75189;SDS011;69198;44.694;37.790;2023-05-24T06:03:58;15.30;;;6.13;;
75189;SDS011;69198;44.694;37.790;2023-05-24T06:04:59;21.17;;;6.50;;
75189;SDS011;69198;44.694;37.790;2023-05-24T06:06:00;13.27;;;5.75;;
75189;SDS011;69198;44.694;37.790;2023-05-24T06:07:01;13.52;;;6.13;;
75189;SDS011;69198;44.694;37.790;2023-05-24T06:08:02;14.68;;;5.68;;
75189;SDS011;69198;44.694;37.790;2023-05-24T06:09:04;13.35;;;5.70;;
75189;SDS011;69198;44.694;37.790;2023-05-24T06:10:05;16.35;;;6.47;;
75189;SDS011;69198;44.694;37.790;2023-05-24T06:11:07;13.85;;;5.78;;
75189;SDS011;69198;44.694;37.790;2023-05-24T06:12:07;14.00;;;5.18;;
75189;SDS011;69198;44.694;37.790;2023-05-24T06:13:08;17.23;;;5.60;;
75189;SDS011;69198;44.694;37.790;2023-05-24T06:14:10;13.55;;;5.28;;
75189;SDS011;69198;44.694;37.790;2023-05-24T06:15:12;14.30;;;5.77;;
75189;SDS011;69198;44.694;37.790;2023-05-24T06:16:13;11.38;;;5.30;;
75189;SDS011;69198;44.694;37.790;2023-05-24T06:17:15;12.90;;;5.80;;
75189;SDS011;69198;44.694;37.790;2023-05-24T06:18:16;12.20;;;5.55;;
75189;SDS011;69198;44.694;37.790;2023-05-24T06:19:17;14.23;;;5.80;;
75189;SDS011;69198;44.694;37.790;2023-05-24T06:20:18;12.48;;;5.70;;